This is the latest recevied weather packets stored in our database for station/object 9M2GDD-1. If no packets are shown the sender has not sent any weather packets the latest 10 day(s).
| Time | Temp. | Humidity | Pressure | Rain* | Wind** | Luminosity | Snow |
|---|---|---|---|---|---|---|---|
| 1788143009 | 89° F | 58% | 762.2 mmHg | - | - | - | - |
| 1788142109 | 88° F | 61% | 762.3 mmHg | - | - | - | - |
| 1788141209 | 88° F | 61% | 762.3 mmHg | - | - | - | - |
| 1788140309 | 87° F | 64% | 762.2 mmHg | - | - | - | - |
| 1788139409 | 86° F | 65% | 762.2 mmHg | - | - | - | - |
| 1788138504 | 85° F | 68% | 762.1 mmHg | - | - | - | - |
| 1788138310 | 81° F | 80% | 761.7 mmHg | - | - | - | - |
| 1788137604 | 84° F | 70% | 762.1 mmHg | - | - | - | - |
| 1788136704 | 82° F | 75% | 761.9 mmHg | - | - | - | - |
| 1788135804 | 81° F | 79% | 761.9 mmHg | - | - | - | - |
| 1788134904 | 81° F | 80% | 761.7 mmHg | - | - | - | - |
| 1788134004 | 80° F | 80% | 761.6 mmHg | - | - | - | - |
| 1788133104 | 80° F | 81% | 761.6 mmHg | - | - | - | - |
| 1788132204 | 80° F | 81% | 761.5 mmHg | - | - | - | - |
| 1788131304 | 80° F | 80% | 761.6 mmHg | - | - | - | - |
| 1788130714 | 80° F | 80% | 761.5 mmHg | - | - | - | - |
| 1788130404 | 80° F | 80% | 761.5 mmHg | - | - | - | - |
| 1788129504 | 80° F | 81% | 761.5 mmHg | - | - | - | - |
| 1788128603 | 80° F | 80% | 761.5 mmHg | - | - | - | - |
| 1788127703 | 80° F | 81% | 761.4 mmHg | - | - | - | - |
| 1788126952 | 80° F | 82% | 761.2 mmHg | - | - | - | - |
| 1788126803 | 80° F | 82% | 761.2 mmHg | - | - | - | - |
| 1788125903 | 80° F | 82% | 761.2 mmHg | - | - | - | - |
| 1788125048 | 87° F | 68% | 758.8 mmHg | - | - | - | - |
| 1788125003 | 80° F | 83% | 761.2 mmHg | - | - | - | - |
* Rain since midnight (hover to see other rain measurements)
** Current wind speed in m/s (hover to see current wind gust speed)